sensor_id;sensor_type;location;lat;lon;timestamp;P1;durP1;ratioP1;P2;durP2;ratioP2
74162;SDS011;62515;52.758;5.076;2022-08-07T00:00:34;12.40;;;7.13;;
74162;SDS011;62515;52.758;5.076;2022-08-07T00:03:05;12.38;;;7.28;;
74162;SDS011;62515;52.758;5.076;2022-08-07T00:05:34;13.32;;;7.78;;
74162;SDS011;62515;52.758;5.076;2022-08-07T00:08:03;14.60;;;7.03;;
74162;SDS011;62515;52.758;5.076;2022-08-07T00:10:33;11.55;;;6.80;;
74162;SDS011;62515;52.758;5.076;2022-08-07T00:13:01;12.30;;;6.85;;
74162;SDS011;62515;52.758;5.076;2022-08-07T00:15:51;13.10;;;7.22;;
74162;SDS011;62515;52.758;5.076;2022-08-07T00:18:20;13.02;;;7.28;;
74162;SDS011;62515;52.758;5.076;2022-08-07T00:20:50;11.13;;;7.28;;
74162;SDS011;62515;52.758;5.076;2022-08-07T00:23:18;11.63;;;7.68;;
74162;SDS011;62515;52.758;5.076;2022-08-07T00:25:46;11.88;;;7.28;;
74162;SDS011;62515;52.758;5.076;2022-08-07T00:28:26;12.05;;;7.53;;
74162;SDS011;62515;52.758;5.076;2022-08-07T00:31:01;11.20;;;6.78;;
74162;SDS011;62515;52.758;5.076;2022-08-07T00:33:32;16.67;;;8.30;;
74162;SDS011;62515;52.758;5.076;2022-08-07T00:35:59;13.18;;;7.88;;
74162;SDS011;62515;52.758;5.076;2022-08-07T00:38:26;12.57;;;7.43;;
74162;SDS011;62515;52.758;5.076;2022-08-07T00:40:57;14.27;;;7.22;;
74162;SDS011;62515;52.758;5.076;2022-08-07T00:43:24;11.13;;;7.18;;
74162;SDS011;62515;52.758;5.076;2022-08-07T00:46:13;12.43;;;7.57;;
74162;SDS011;62515;52.758;5.076;2022-08-07T00:48:39;10.98;;;7.20;;
74162;SDS011;62515;52.758;5.076;2022-08-07T00:51:07;11.38;;;7.03;;
74162;SDS011;62515;52.758;5.076;2022-08-07T00:53:35;13.00;;;7.60;;
74162;SDS011;62515;52.758;5.076;2022-08-07T00:56:16;13.52;;;8.52;;
74162;SDS011;62515;52.758;5.076;2022-08-07T00:58:43;14.80;;;7.88;;
74162;SDS011;62515;52.758;5.076;2022-08-07T01:01:16;12.93;;;8.13;;
74162;SDS011;62515;52.758;5.076;2022-08-07T01:03:46;13.77;;;7.72;;
74162;SDS011;62515;52.758;5.076;2022-08-07T01:06:25;11.90;;;7.25;;
74162;SDS011;62515;52.758;5.076;2022-08-07T01:08:52;11.75;;;7.75;;
74162;SDS011;62515;52.758;5.076;2022-08-07T01:11:21;13.73;;;7.63;;
74162;SDS011;62515;52.758;5.076;2022-08-07T01:19:12;15.07;;;7.82;;
74162;SDS011;62515;52.758;5.076;2022-08-07T01:21:48;15.38;;;8.05;;
74162;SDS011;62515;52.758;5.076;2022-08-07T01:24:24;13.30;;;8.32;;
74162;SDS011;62515;52.758;5.076;2022-08-07T01:26:56;12.00;;;6.95;;
74162;SDS011;62515;52.758;5.076;2022-08-07T01:29:25;12.32;;;7.15;;
74162;SDS011;62515;52.758;5.076;2022-08-07T01:32:00;13.80;;;7.68;;
74162;SDS011;62515;52.758;5.076;2022-08-07T01:34:31;15.43;;;8.13;;
74162;SDS011;62515;52.758;5.076;2022-08-07T01:37:06;16.92;;;8.18;;
74162;SDS011;62515;52.758;5.076;2022-08-07T01:39:38;17.88;;;8.23;;
74162;SDS011;62515;52.758;5.076;2022-08-07T01:42:33;14.50;;;7.63;;
74162;SDS011;62515;52.758;5.076;2022-08-07T01:45:20;13.98;;;8.32;;
74162;SDS011;62515;52.758;5.076;2022-08-07T01:47:56;12.63;;;7.95;;
74162;SDS011;62515;52.758;5.076;2022-08-07T01:50:44;16.20;;;8.38;;
74162;SDS011;62515;52.758;5.076;2022-08-07T01:53:17;14.60;;;9.32;;
74162;SDS011;62515;52.758;5.076;2022-08-07T01:56:08;14.43;;;8.02;;
74162;SDS011;62515;52.758;5.076;2022-08-07T01:58:41;15.93;;;8.00;;
74162;SDS011;62515;52.758;5.076;2022-08-07T02:01:12;13.80;;;7.80;;
74162;SDS011;62515;52.758;5.076;2022-08-07T02:04:06;11.32;;;7.10;;
74162;SDS011;62515;52.758;5.076;2022-08-07T02:06:39;12.60;;;7.78;;
74162;SDS011;62515;52.758;5.076;2022-08-07T02:09:13;16.35;;;9.32;;
74162;SDS011;62515;52.758;5.076;2022-08-07T02:12:03;16.33;;;9.02;;
74162;SDS011;62515;52.758;5.076;2022-08-07T02:14:50;13.55;;;8.55;;
74162;SDS011;62515;52.758;5.076;2022-08-07T02:17:36;16.27;;;9.15;;
74162;SDS011;62515;52.758;5.076;2022-08-07T02:20:06;15.25;;;9.32;;
74162;SDS011;62515;52.758;5.076;2022-08-07T02:22:49;16.40;;;9.00;;
74162;SDS011;62515;52.758;5.076;2022-08-07T02:25:22;15.50;;;8.30;;
74162;SDS011;62515;52.758;5.076;2022-08-07T02:28:13;17.52;;;9.18;;
74162;SDS011;62515;52.758;5.076;2022-08-07T02:30:51;16.33;;;8.27;;
74162;SDS011;62515;52.758;5.076;2022-08-07T02:33:19;14.52;;;8.75;;
74162;SDS011;62515;52.758;5.076;2022-08-07T02:35:59;16.73;;;9.65;;
74162;SDS011;62515;52.758;5.076;2022-08-07T02:38:48;15.50;;;9.35;;
74162;SDS011;62515;52.758;5.076;2022-08-07T02:41:25;13.93;;;8.32;;
74162;SDS011;62515;52.758;5.076;2022-08-07T02:44:04;19.90;;;9.55;;
74162;SDS011;62515;52.758;5.076;2022-08-07T02:46:34;15.45;;;8.73;;
74162;SDS011;62515;52.758;5.076;2022-08-07T02:49:11;15.57;;;9.18;;
74162;SDS011;62515;52.758;5.076;2022-08-07T02:52:00;16.80;;;9.27;;
74162;SDS011;62515;52.758;5.076;2022-08-07T02:54:31;17.67;;;9.05;;
74162;SDS011;62515;52.758;5.076;2022-08-07T02:57:02;16.05;;;9.00;;
74162;SDS011;62515;52.758;5.076;2022-08-07T02:59:32;19.00;;;10.13;;
74162;SDS011;62515;52.758;5.076;2022-08-07T03:02:05;17.70;;;9.93;;
74162;SDS011;62515;52.758;5.076;2022-08-07T03:04:35;17.83;;;10.10;;
74162;SDS011;62515;52.758;5.076;2022-08-07T03:07:02;17.55;;;10.10;;
74162;SDS011;62515;52.758;5.076;2022-08-07T03:09:39;20.17;;;11.10;;
74162;SDS011;62515;52.758;5.076;2022-08-07T03:12:12;19.88;;;10.13;;
74162;SDS011;62515;52.758;5.076;2022-08-07T03:15:01;15.60;;;9.18;;
74162;SDS011;62515;52.758;5.076;2022-08-07T03:17:34;20.58;;;10.45;;
74162;SDS011;62515;52.758;5.076;2022-08-07T03:20:20;16.13;;;9.55;;
74162;SDS011;62515;52.758;5.076;2022-08-07T03:22:48;17.42;;;9.23;;
74162;SDS011;62515;52.758;5.076;2022-08-07T03:25:16;15.80;;;9.23;;
74162;SDS011;62515;52.758;5.076;2022-08-07T03:27:48;17.25;;;10.25;;
74162;SDS011;62515;52.758;5.076;2022-08-07T03:30:35;18.35;;;9.70;;
74162;SDS011;62515;52.758;5.076;2022-08-07T03:33:03;16.27;;;10.25;;
74162;SDS011;62515;52.758;5.076;2022-08-07T03:35:36;16.58;;;10.05;;
74162;SDS011;62515;52.758;5.076;2022-08-07T03:38:17;19.38;;;10.43;;
74162;SDS011;62515;52.758;5.076;2022-08-07T03:40:48;19.40;;;10.48;;
74162;SDS011;62515;52.758;5.076;2022-08-07T03:43:25;15.43;;;9.73;;
74162;SDS011;62515;52.758;5.076;2022-08-07T03:46:00;17.80;;;9.82;;
74162;SDS011;62515;52.758;5.076;2022-08-07T03:48:30;18.02;;;10.50;;
74162;SDS011;62515;52.758;5.076;2022-08-07T03:50:58;20.67;;;10.68;;
74162;SDS011;62515;52.758;5.076;2022-08-07T03:53:33;17.67;;;9.60;;
74162;SDS011;62515;52.758;5.076;2022-08-07T03:56:20;18.27;;;10.35;;
74162;SDS011;62515;52.758;5.076;2022-08-07T03:59:05;18.23;;;9.45;;
74162;SDS011;62515;52.758;5.076;2022-08-07T04:01:41;20.02;;;10.73;;
74162;SDS011;62515;52.758;5.076;2022-08-07T04:04:14;19.40;;;10.68;;
74162;SDS011;62515;52.758;5.076;2022-08-07T04:06:45;18.08;;;10.88;;
74162;SDS011;62515;52.758;5.076;2022-08-07T04:09:18;23.90;;;11.50;;
74162;SDS011;62515;52.758;5.076;2022-08-07T04:11:51;19.67;;;11.40;;
74162;SDS011;62515;52.758;5.076;2022-08-07T04:14:41;19.27;;;10.32;;
74162;SDS011;62515;52.758;5.076;2022-08-07T04:17:15;22.13;;;11.75;;
74162;SDS011;62515;52.758;5.076;2022-08-07T04:19:50;18.85;;;10.98;;
74162;SDS011;62515;52.758;5.076;2022-08-07T04:22:24;18.90;;;10.63;;
74162;SDS011;62515;52.758;5.076;2022-08-07T04:24:55;19.80;;;11.35;;
74162;SDS011;62515;52.758;5.076;2022-08-07T04:27:24;21.80;;;11.65;;
74162;SDS011;62515;52.758;5.076;2022-08-07T04:29:57;17.83;;;10.38;;
74162;SDS011;62515;52.758;5.076;2022-08-07T04:32:50;22.85;;;11.13;;
74162;SDS011;62515;52.758;5.076;2022-08-07T04:35:26;21.00;;;11.60;;
74162;SDS011;62515;52.758;5.076;2022-08-07T04:38:03;26.98;;;11.65;;
74162;SDS011;62515;52.758;5.076;2022-08-07T04:40:34;23.92;;;11.57;;
74162;SDS011;62515;52.758;5.076;2022-08-07T04:43:19;22.40;;;11.88;;
74162;SDS011;62515;52.758;5.076;2022-08-07T04:46:14;20.45;;;11.10;;
74162;SDS011;62515;52.758;5.076;2022-08-07T04:49:02;24.42;;;12.68;;
74162;SDS011;62515;52.758;5.076;2022-08-07T04:54:27;21.88;;;12.38;;
74162;SDS011;62515;52.758;5.076;2022-08-07T04:57:03;25.45;;;12.27;;
74162;SDS011;62515;52.758;5.076;2022-08-07T04:59:58;22.48;;;11.73;;
74162;SDS011;62515;52.758;5.076;2022-08-07T05:02:41;25.90;;;12.45;;
74162;SDS011;62515;52.758;5.076;2022-08-07T05:05:16;25.50;;;12.30;;
74162;SDS011;62515;52.758;5.076;2022-08-07T05:08:11;22.05;;;11.80;;
74162;SDS011;62515;52.758;5.076;2022-08-07T05:11:04;21.45;;;11.75;;
74162;SDS011;62515;52.758;5.076;2022-08-07T05:13:46;21.38;;;11.30;;
74162;SDS011;62515;52.758;5.076;2022-08-07T05:16:39;19.23;;;10.75;;
74162;SDS011;62515;52.758;5.076;2022-08-07T05:19:13;23.85;;;11.43;;
74162;SDS011;62515;52.758;5.076;2022-08-07T05:21:59;20.42;;;11.13;;
74162;SDS011;62515;52.758;5.076;2022-08-07T05:24:33;19.95;;;11.63;;
74162;SDS011;62515;52.758;5.076;2022-08-07T05:27:07;19.23;;;12.18;;
74162;SDS011;62515;52.758;5.076;2022-08-07T05:29:56;20.98;;;11.27;;
74162;SDS011;62515;52.758;5.076;2022-08-07T05:32:25;22.42;;;12.13;;
74162;SDS011;62515;52.758;5.076;2022-08-07T05:34:54;19.67;;;11.23;;
74162;SDS011;62515;52.758;5.076;2022-08-07T05:37:22;18.08;;;10.93;;
74162;SDS011;62515;52.758;5.076;2022-08-07T05:40:00;19.52;;;11.15;;
74162;SDS011;62515;52.758;5.076;2022-08-07T05:42:43;24.35;;;12.15;;
74162;SDS011;62515;52.758;5.076;2022-08-07T05:45:23;26.35;;;12.85;;
74162;SDS011;62515;52.758;5.076;2022-08-07T05:48:11;25.33;;;11.63;;
74162;SDS011;62515;52.758;5.076;2022-08-07T05:50:45;19.83;;;11.48;;
74162;SDS011;62515;52.758;5.076;2022-08-07T05:53:17;21.27;;;12.32;;
74162;SDS011;62515;52.758;5.076;2022-08-07T05:56:04;21.30;;;11.02;;
74162;SDS011;62515;52.758;5.076;2022-08-07T05:58:41;18.98;;;11.05;;
74162;SDS011;62515;52.758;5.076;2022-08-07T06:01:20;18.90;;;10.07;;
74162;SDS011;62515;52.758;5.076;2022-08-07T06:03:52;20.33;;;10.70;;
74162;SDS011;62515;52.758;5.076;2022-08-07T06:06:31;18.05;;;9.90;;
74162;SDS011;62515;52.758;5.076;2022-08-07T06:09:02;18.15;;;10.93;;
74162;SDS011;62515;52.758;5.076;2022-08-07T06:11:34;19.13;;;10.32;;
74162;SDS011;62515;52.758;5.076;2022-08-07T06:14:03;16.73;;;9.43;;
74162;SDS011;62515;52.758;5.076;2022-08-07T06:16:51;18.85;;;9.75;;
74162;SDS011;62515;52.758;5.076;2022-08-07T06:19:32;18.45;;;9.35;;
74162;SDS011;62515;52.758;5.076;2022-08-07T06:22:22;16.10;;;8.77;;
74162;SDS011;62515;52.758;5.076;2022-08-07T06:25:08;16.30;;;8.50;;
74162;SDS011;62515;52.758;5.076;2022-08-07T06:27:37;13.77;;;8.60;;
74162;SDS011;62515;52.758;5.076;2022-08-07T06:30:24;14.63;;;8.57;;
74162;SDS011;62515;52.758;5.076;2022-08-07T06:33:06;13.50;;;8.25;;
74162;SDS011;62515;52.758;5.076;2022-08-07T06:35:42;15.32;;;8.32;;
74162;SDS011;62515;52.758;5.076;2022-08-07T06:38:31;15.85;;;7.85;;
74162;SDS011;62515;52.758;5.076;2022-08-07T06:41:00;13.52;;;7.43;;
74162;SDS011;62515;52.758;5.076;2022-08-07T06:43:35;11.65;;;6.70;;
74162;SDS011;62515;52.758;5.076;2022-08-07T06:46:10;11.48;;;6.85;;
74162;SDS011;62515;52.758;5.076;2022-08-07T06:48:39;11.02;;;6.50;;
74162;SDS011;62515;52.758;5.076;2022-08-07T06:51:13;12.35;;;7.13;;
74162;SDS011;62515;52.758;5.076;2022-08-07T06:54:03;12.38;;;6.00;;
74162;SDS011;62515;52.758;5.076;2022-08-07T06:56:53;9.50;;;5.55;;
74162;SDS011;62515;52.758;5.076;2022-08-07T06:59:28;9.13;;;4.80;;
74162;SDS011;62515;52.758;5.076;2022-08-07T07:02:20;10.18;;;4.22;;
74162;SDS011;62515;52.758;5.076;2022-08-07T07:05:10;10.95;;;3.95;;
74162;SDS011;62515;52.758;5.076;2022-08-07T07:07:38;7.20;;;3.90;;
74162;SDS011;62515;52.758;5.076;2022-08-07T07:10:30;6.57;;;4.07;;
74162;SDS011;62515;52.758;5.076;2022-08-07T07:13:03;7.85;;;3.30;;
74162;SDS011;62515;52.758;5.076;2022-08-07T07:15:39;6.78;;;3.17;;
74162;SDS011;62515;52.758;5.076;2022-08-07T07:18:18;7.28;;;3.03;;
74162;SDS011;62515;52.758;5.076;2022-08-07T07:21:09;6.18;;;2.92;;
74162;SDS011;62515;52.758;5.076;2022-08-07T07:23:45;6.45;;;2.70;;
74162;SDS011;62515;52.758;5.076;2022-08-07T07:26:34;6.72;;;2.92;;
74162;SDS011;62515;52.758;5.076;2022-08-07T07:29:07;4.88;;;2.55;;
74162;SDS011;62515;52.758;5.076;2022-08-07T07:31:59;5.35;;;2.75;;
74162;SDS011;62515;52.758;5.076;2022-08-07T07:34:29;7.45;;;2.28;;
74162;SDS011;62515;52.758;5.076;2022-08-07T07:37:01;4.25;;;2.55;;
74162;SDS011;62515;52.758;5.076;2022-08-07T07:39:47;4.68;;;2.33;;
74162;SDS011;62515;52.758;5.076;2022-08-07T07:42:22;7.03;;;2.53;;
74162;SDS011;62515;52.758;5.076;2022-08-07T07:44:58;5.47;;;2.75;;
74162;SDS011;62515;52.758;5.076;2022-08-07T07:47:28;5.90;;;2.55;;
74162;SDS011;62515;52.758;5.076;2022-08-07T07:50:16;5.60;;;2.45;;
74162;SDS011;62515;52.758;5.076;2022-08-07T07:55:46;3.92;;;1.98;;
74162;SDS011;62515;52.758;5.076;2022-08-07T07:58:24;4.78;;;2.17;;
74162;SDS011;62515;52.758;5.076;2022-08-07T08:00:54;5.13;;;2.30;;
74162;SDS011;62515;52.758;5.076;2022-08-07T08:03:24;6.20;;;1.90;;
74162;SDS011;62515;52.758;5.076;2022-08-07T08:06:14;5.15;;;1.70;;
74162;SDS011;62515;52.758;5.076;2022-08-07T08:08:42;3.75;;;1.70;;
74162;SDS011;62515;52.758;5.076;2022-08-07T08:11:13;2.92;;;1.60;;
74162;SDS011;62515;52.758;5.076;2022-08-07T08:14:02;5.90;;;1.80;;
74162;SDS011;62515;52.758;5.076;2022-08-07T08:16:31;4.28;;;1.90;;
74162;SDS011;62515;52.758;5.076;2022-08-07T08:19:01;4.47;;;1.70;;
74162;SDS011;62515;52.758;5.076;2022-08-07T08:21:50;3.03;;;1.40;;
74162;SDS011;62515;52.758;5.076;2022-08-07T08:24:37;4.25;;;1.70;;
74162;SDS011;62515;52.758;5.076;2022-08-07T08:27:47;3.75;;;1.70;;
74162;SDS011;62515;52.758;5.076;2022-08-07T08:30:28;2.42;;;1.40;;
74162;SDS011;62515;52.758;5.076;2022-08-07T08:33:02;2.53;;;1.60;;
74162;SDS011;62515;52.758;5.076;2022-08-07T08:35:41;6.70;;;2.08;;
74162;SDS011;62515;52.758;5.076;2022-08-07T08:38:16;3.38;;;1.65;;
74162;SDS011;62515;52.758;5.076;2022-08-07T08:40:47;3.35;;;1.60;;
74162;SDS011;62515;52.758;5.076;2022-08-07T08:43:23;5.68;;;1.60;;
74162;SDS011;62515;52.758;5.076;2022-08-07T08:46:17;3.10;;;1.60;;
74162;SDS011;62515;52.758;5.076;2022-08-07T08:48:52;3.60;;;1.60;;
74162;SDS011;62515;52.758;5.076;2022-08-07T08:51:26;5.50;;;2.08;;
74162;SDS011;62515;52.758;5.076;2022-08-07T08:54:19;2.60;;;1.58;;
74162;SDS011;62515;52.758;5.076;2022-08-07T08:56:50;4.68;;;1.45;;
74162;SDS011;62515;52.758;5.076;2022-08-07T08:59:25;4.28;;;1.15;;
74162;SDS011;62515;52.758;5.076;2022-08-07T09:01:58;4.30;;;1.45;;
74162;SDS011;62515;52.758;5.076;2022-08-07T09:04:35;3.70;;;1.30;;
74162;SDS011;62515;52.758;5.076;2022-08-07T09:07:10;3.75;;;1.27;;
74162;SDS011;62515;52.758;5.076;2022-08-07T09:09:52;2.80;;;1.20;;
74162;SDS011;62515;52.758;5.076;2022-08-07T09:12:39;1.70;;;1.00;;
74162;SDS011;62515;52.758;5.076;2022-08-07T09:21:35;2.65;;;1.10;;
74162;SDS011;62515;52.758;5.076;2022-08-07T09:24:35;2.60;;;1.20;;
74162;SDS011;62515;52.758;5.076;2022-08-07T09:27:29;2.58;;;1.30;;
74162;SDS011;62515;52.758;5.076;2022-08-07T09:30:28;2.70;;;1.27;;
74162;SDS011;62515;52.758;5.076;2022-08-07T09:33:20;2.92;;;1.30;;
74162;SDS011;62515;52.758;5.076;2022-08-07T09:36:21;2.00;;;1.23;;
74162;SDS011;62515;52.758;5.076;2022-08-07T09:39:04;2.20;;;1.10;;
74162;SDS011;62515;52.758;5.076;2022-08-07T09:42:03;2.13;;;0.95;;
74162;SDS011;62515;52.758;5.076;2022-08-07T09:44:51;2.17;;;1.20;;
74162;SDS011;62515;52.758;5.076;2022-08-07T09:47:45;4.68;;;1.38;;
74162;SDS011;62515;52.758;5.076;2022-08-07T09:50:29;3.33;;;1.30;;
74162;SDS011;62515;52.758;5.076;2022-08-07T09:53:06;2.72;;;1.08;;
74162;SDS011;62515;52.758;5.076;2022-08-07T09:55:44;5.35;;;1.45;;
74162;SDS011;62515;52.758;5.076;2022-08-07T10:01:25;3.47;;;1.08;;
74162;SDS011;62515;52.758;5.076;2022-08-07T10:04:23;3.92;;;0.98;;
74162;SDS011;62515;52.758;5.076;2022-08-07T10:07:04;2.63;;;1.10;;
74162;SDS011;62515;52.758;5.076;2022-08-07T10:09:56;3.13;;;1.20;;
74162;SDS011;62515;52.758;5.076;2022-08-07T10:12:39;3.72;;;1.25;;
74162;SDS011;62515;52.758;5.076;2022-08-07T10:15:24;2.20;;;0.90;;
74162;SDS011;62515;52.758;5.076;2022-08-07T10:18:15;2.15;;;1.13;;
74162;SDS011;62515;52.758;5.076;2022-08-07T10:21:14;3.47;;;1.30;;
74162;SDS011;62515;52.758;5.076;2022-08-07T10:24:14;2.47;;;1.20;;
74162;SDS011;62515;52.758;5.076;2022-08-07T10:27:05;2.50;;;1.30;;
74162;SDS011;62515;52.758;5.076;2022-08-07T10:29:51;3.17;;;1.23;;
74162;SDS011;62515;52.758;5.076;2022-08-07T10:32:35;2.38;;;1.05;;
74162;SDS011;62515;52.758;5.076;2022-08-07T10:35:21;3.83;;;1.50;;
74162;SDS011;62515;52.758;5.076;2022-08-07T10:38:17;2.67;;;1.20;;
74162;SDS011;62515;52.758;5.076;2022-08-07T10:41:14;4.10;;;1.45;;
74162;SDS011;62515;52.758;5.076;2022-08-07T10:44:09;3.15;;;1.20;;
74162;SDS011;62515;52.758;5.076;2022-08-07T10:46:56;4.93;;;1.30;;
74162;SDS011;62515;52.758;5.076;2022-08-07T10:49:40;4.55;;;1.20;;
74162;SDS011;62515;52.758;5.076;2022-08-07T10:52:17;2.65;;;1.40;;
74162;SDS011;62515;52.758;5.076;2022-08-07T10:55:02;3.05;;;1.30;;
74162;SDS011;62515;52.758;5.076;2022-08-07T11:00:33;2.13;;;1.45;;
74162;SDS011;62515;52.758;5.076;2022-08-07T11:03:25;2.55;;;1.30;;
74162;SDS011;62515;52.758;5.076;2022-08-07T11:06:18;4.53;;;1.30;;
74162;SDS011;62515;52.758;5.076;2022-08-07T11:08:53;2.45;;;1.35;;
74162;SDS011;62515;52.758;5.076;2022-08-07T11:11:26;2.10;;;1.35;;
74162;SDS011;62515;52.758;5.076;2022-08-07T11:14:02;2.40;;;1.33;;
74162;SDS011;62515;52.758;5.076;2022-08-07T11:16:53;2.75;;;1.50;;
74162;SDS011;62515;52.758;5.076;2022-08-07T11:19:29;3.47;;;1.50;;
74162;SDS011;62515;52.758;5.076;2022-08-07T11:22:06;3.78;;;1.35;;
74162;SDS011;62515;52.758;5.076;2022-08-07T11:24:57;3.30;;;1.92;;
74162;SDS011;62515;52.758;5.076;2022-08-07T11:27:47;3.30;;;1.90;;
74162;SDS011;62515;52.758;5.076;2022-08-07T11:30:31;4.03;;;2.00;;
74162;SDS011;62515;52.758;5.076;2022-08-07T11:33:08;6.88;;;2.00;;
74162;SDS011;62515;52.758;5.076;2022-08-07T11:35:45;4.88;;;1.90;;
74162;SDS011;62515;52.758;5.076;2022-08-07T11:38:25;4.00;;;1.80;;
74162;SDS011;62515;52.758;5.076;2022-08-07T11:40:58;3.90;;;1.50;;
74162;SDS011;62515;52.758;5.076;2022-08-07T11:43:30;2.75;;;1.50;;
74162;SDS011;62515;52.758;5.076;2022-08-07T11:46:24;4.00;;;1.70;;
74162;SDS011;62515;52.758;5.076;2022-08-07T11:49:07;2.95;;;2.00;;
74162;SDS011;62515;52.758;5.076;2022-08-07T11:55:08;4.53;;;2.10;;
74162;SDS011;62515;52.758;5.076;2022-08-07T11:58:04;3.50;;;1.60;;
74162;SDS011;62515;52.758;5.076;2022-08-07T12:00:44;2.65;;;1.52;;
74162;SDS011;62515;52.758;5.076;2022-08-07T12:03:49;3.60;;;1.83;;
74162;SDS011;62515;52.758;5.076;2022-08-07T12:06:30;6.43;;;1.58;;
74162;SDS011;62515;52.758;5.076;2022-08-07T12:09:23;4.57;;;2.00;;
74162;SDS011;62515;52.758;5.076;2022-08-07T12:11:58;3.13;;;1.80;;
74162;SDS011;62515;52.758;5.076;2022-08-07T12:14:39;2.80;;;1.70;;
74162;SDS011;62515;52.758;5.076;2022-08-07T12:17:29;2.92;;;1.40;;
74162;SDS011;62515;52.758;5.076;2022-08-07T12:20:03;3.88;;;1.80;;
74162;SDS011;62515;52.758;5.076;2022-08-07T12:25:44;3.13;;;1.63;;
74162;SDS011;62515;52.758;5.076;2022-08-07T12:28:40;3.08;;;1.85;;
74162;SDS011;62515;52.758;5.076;2022-08-07T12:31:21;2.80;;;1.63;;
74162;SDS011;62515;52.758;5.076;2022-08-07T12:34:14;4.88;;;1.80;;
74162;SDS011;62515;52.758;5.076;2022-08-07T12:36:45;7.45;;;1.70;;
74162;SDS011;62515;52.758;5.076;2022-08-07T12:39:15;4.15;;;1.98;;
74162;SDS011;62515;52.758;5.076;2022-08-07T12:42:07;5.05;;;1.60;;
74162;SDS011;62515;52.758;5.076;2022-08-07T12:44:38;3.95;;;1.70;;
74162;SDS011;62515;52.758;5.076;2022-08-07T12:47:12;3.35;;;1.58;;
74162;SDS011;62515;52.758;5.076;2022-08-07T12:49:59;4.38;;;2.10;;
74162;SDS011;62515;52.758;5.076;2022-08-07T12:52:56;5.93;;;2.17;;
74162;SDS011;62515;52.758;5.076;2022-08-07T12:55:45;4.70;;;1.70;;
74162;SDS011;62515;52.758;5.076;2022-08-07T12:58:32;3.22;;;1.90;;
74162;SDS011;62515;52.758;5.076;2022-08-07T13:01:06;4.43;;;2.00;;
74162;SDS011;62515;52.758;5.076;2022-08-07T13:03:54;4.70;;;1.95;;
74162;SDS011;62515;52.758;5.076;2022-08-07T13:06:41;6.90;;;2.17;;
74162;SDS011;62515;52.758;5.076;2022-08-07T13:09:29;5.60;;;2.00;;
74162;SDS011;62515;52.758;5.076;2022-08-07T13:12:30;3.22;;;1.83;;
74162;SDS011;62515;52.758;5.076;2022-08-07T13:15:09;2.92;;;1.92;;
74162;SDS011;62515;52.758;5.076;2022-08-07T13:17:56;3.50;;;1.83;;
74162;SDS011;62515;52.758;5.076;2022-08-07T13:20:29;5.43;;;1.90;;
74162;SDS011;62515;52.758;5.076;2022-08-07T13:23:08;6.03;;;1.92;;
74162;SDS011;62515;52.758;5.076;2022-08-07T13:26:00;3.95;;;1.80;;
74162;SDS011;62515;52.758;5.076;2022-08-07T13:28:33;3.72;;;1.95;;
74162;SDS011;62515;52.758;5.076;2022-08-07T13:33:42;4.25;;;2.08;;
74162;SDS011;62515;52.758;5.076;2022-08-07T13:36:36;6.30;;;2.08;;
74162;SDS011;62515;52.758;5.076;2022-08-07T13:39:08;4.68;;;2.10;;
74162;SDS011;62515;52.758;5.076;2022-08-07T13:42:02;4.63;;;2.00;;
74162;SDS011;62515;52.758;5.076;2022-08-07T13:44:36;5.60;;;2.03;;
74162;SDS011;62515;52.758;5.076;2022-08-07T13:47:07;4.28;;;2.10;;
74162;SDS011;62515;52.758;5.076;2022-08-07T13:49:47;4.10;;;2.17;;
74162;SDS011;62515;52.758;5.076;2022-08-07T13:52:38;6.13;;;2.05;;
74162;SDS011;62515;52.758;5.076;2022-08-07T13:55:13;6.05;;;2.22;;
74162;SDS011;62515;52.758;5.076;2022-08-07T13:57:57;4.55;;;1.90;;
74162;SDS011;62515;52.758;5.076;2022-08-07T14:00:57;5.88;;;1.83;;
74162;SDS011;62515;52.758;5.076;2022-08-07T14:03:36;6.82;;;1.80;;
74162;SDS011;62515;52.758;5.076;2022-08-07T14:06:29;6.20;;;2.10;;
74162;SDS011;62515;52.758;5.076;2022-08-07T14:09:00;8.23;;;2.10;;
74162;SDS011;62515;52.758;5.076;2022-08-07T14:11:30;3.80;;;1.70;;
74162;SDS011;62515;52.758;5.076;2022-08-07T14:14:23;5.15;;;1.73;;
74162;SDS011;62515;52.758;5.076;2022-08-07T14:16:53;4.05;;;2.15;;
74162;SDS011;62515;52.758;5.076;2022-08-07T14:19:47;3.97;;;1.90;;
74162;SDS011;62515;52.758;5.076;2022-08-07T14:25:09;6.03;;;1.95;;
74162;SDS011;62515;52.758;5.076;2022-08-07T14:27:40;3.50;;;1.90;;
74162;SDS011;62515;52.758;5.076;2022-08-07T14:30:30;4.22;;;2.15;;
74162;SDS011;62515;52.758;5.076;2022-08-07T14:32:59;4.22;;;2.10;;
74162;SDS011;62515;52.758;5.076;2022-08-07T14:35:32;4.43;;;2.08;;
74162;SDS011;62515;52.758;5.076;2022-08-07T14:38:13;3.67;;;2.10;;
74162;SDS011;62515;52.758;5.076;2022-08-07T14:40:57;3.25;;;1.80;;
74162;SDS011;62515;52.758;5.076;2022-08-07T14:43:30;4.63;;;1.80;;
74162;SDS011;62515;52.758;5.076;2022-08-07T14:46:20;3.58;;;1.75;;
74162;SDS011;62515;52.758;5.076;2022-08-07T14:48:57;5.82;;;2.03;;
74162;SDS011;62515;52.758;5.076;2022-08-07T14:51:48;6.10;;;2.35;;
74162;SDS011;62515;52.758;5.076;2022-08-07T14:54:37;4.45;;;1.90;;
74162;SDS011;62515;52.758;5.076;2022-08-07T14:57:25;5.97;;;2.33;;
74162;SDS011;62515;52.758;5.076;2022-08-07T15:00:16;6.47;;;2.20;;
74162;SDS011;62515;52.758;5.076;2022-08-07T15:03:05;3.83;;;1.90;;
74162;SDS011;62515;52.758;5.076;2022-08-07T15:05:44;5.38;;;1.92;;
74162;SDS011;62515;52.758;5.076;2022-08-07T15:08:36;4.78;;;1.92;;
74162;SDS011;62515;52.758;5.076;2022-08-07T15:11:20;5.72;;;1.83;;
74162;SDS011;62515;52.758;5.076;2022-08-07T15:14:12;3.70;;;1.70;;
74162;SDS011;62515;52.758;5.076;2022-08-07T15:16:46;5.38;;;1.92;;
74162;SDS011;62515;52.758;5.076;2022-08-07T15:19:35;4.68;;;2.13;;
74162;SDS011;62515;52.758;5.076;2022-08-07T15:22:25;5.47;;;2.20;;
74162;SDS011;62515;52.758;5.076;2022-08-07T15:25:06;5.72;;;2.33;;
74162;SDS011;62515;52.758;5.076;2022-08-07T15:27:58;3.72;;;1.88;;
74162;SDS011;62515;52.758;5.076;2022-08-07T15:30:47;4.80;;;1.70;;
74162;SDS011;62515;52.758;5.076;2022-08-07T15:33:37;5.55;;;2.63;;
74162;SDS011;62515;52.758;5.076;2022-08-07T15:36:25;3.33;;;2.03;;
74162;SDS011;62515;52.758;5.076;2022-08-07T15:39:13;4.45;;;1.90;;
74162;SDS011;62515;52.758;5.076;2022-08-07T15:41:59;5.80;;;2.00;;
74162;SDS011;62515;52.758;5.076;2022-08-07T15:44:48;5.72;;;2.15;;
74162;SDS011;62515;52.758;5.076;2022-08-07T15:47:36;5.25;;;2.20;;
74162;SDS011;62515;52.758;5.076;2022-08-07T15:50:26;3.65;;;1.98;;
74162;SDS011;62515;52.758;5.076;2022-08-07T15:53:15;5.20;;;2.25;;
74162;SDS011;62515;52.758;5.076;2022-08-07T15:55:50;5.43;;;2.13;;
74162;SDS011;62515;52.758;5.076;2022-08-07T15:58:33;4.32;;;1.75;;
74162;SDS011;62515;52.758;5.076;2022-08-07T16:01:05;5.25;;;1.75;;
74162;SDS011;62515;52.758;5.076;2022-08-07T16:03:47;5.75;;;1.80;;
74162;SDS011;62515;52.758;5.076;2022-08-07T16:06:25;4.13;;;1.73;;
74162;SDS011;62515;52.758;5.076;2022-08-07T16:08:56;2.78;;;1.40;;
74162;SDS011;62515;52.758;5.076;2022-08-07T16:11:31;4.15;;;1.80;;
74162;SDS011;62515;52.758;5.076;2022-08-07T16:14:11;3.30;;;1.30;;
74162;SDS011;62515;52.758;5.076;2022-08-07T16:16:51;4.30;;;1.33;;
74162;SDS011;62515;52.758;5.076;2022-08-07T16:19:36;4.82;;;1.60;;
74162;SDS011;62515;52.758;5.076;2022-08-07T16:25:28;6.65;;;1.85;;
74162;SDS011;62515;52.758;5.076;2022-08-07T16:31:53;6.80;;;1.58;;
74162;SDS011;62515;52.758;5.076;2022-08-07T16:34:29;4.45;;;1.67;;
74162;SDS011;62515;52.758;5.076;2022-08-07T16:37:17;4.38;;;1.80;;
74162;SDS011;62515;52.758;5.076;2022-08-07T16:40:14;11.20;;;2.05;;